Time;durP1;ratioP1;P1;durP2;ratioP2;P2;SDS_P1;SDS_P2;PMS_P1;PMS_P2;Temp;Humidity;BMP_temperature;BMP_pressure;BME280_temperature;BME280_humidity;BME280_pressure;Samples;Min_cycle;Max_cycle;Signal;HPM_P1;HPM_P2
2023/09/06 00:01:44;;;;;;;12.00;5.90;;;;;;;14.10;100.00;100752.86;105260;1256;73911;-62
2023/09/06 00:04:12;;;;;;;12.60;5.90;;;;;;;14.09;100.00;100755.23;105447;1256;66200;-64
2023/09/06 00:06:39;;;;;;;9.20;5.50;;;;;;;14.10;100.00;100757.27;105046;1261;71207;-62
2023/09/06 00:09:06;;;;;;;8.80;5.50;;;;;;;14.11;100.00;100756.53;105285;1256;61986;-63
2023/09/06 00:11:33;;;;;;;8.20;5.30;;;;;;;14.11;100.00;100754.47;105356;1260;60339;-62
2023/09/06 00:14:03;;;;;;;8.10;4.90;;;;;;;14.09;100.00;100751.35;105537;1256;72957;-64
2023/09/06 00:16:30;;;;;;;7.10;4.90;;;;;;;14.07;100.00;100751.83;105395;1260;67220;-62
2023/09/06 00:18:59;;;;;;;7.30;5.20;;;;;;;14.07;100.00;100755.34;105476;1256;71906;-64
2023/09/06 00:21:28;;;;;;;8.00;5.30;;;;;;;14.03;100.00;100756.33;105425;1256;60750;-62
2023/09/06 00:23:56;;;;;;;10.70;5.60;;;;;;;13.98;100.00;100757.58;105497;1262;60444;-62
2023/09/06 00:26:23;;;;;;;8.80;5.80;;;;;;;13.91;100.00;100757.95;105414;1256;74845;-62
2023/09/06 00:28:50;;;;;;;8.40;5.50;;;;;;;13.84;100.00;100759.02;105505;1260;67240;-62
2023/09/06 00:31:17;;;;;;;12.30;5.90;;;;;;;13.78;100.00;100755.89;105984;1258;72569;-65
2023/09/06 00:33:45;;;;;;;13.30;6.00;;;;;;;13.72;100.00;100755.23;105221;1257;61983;-62
2023/09/06 00:36:13;;;;;;;9.40;5.70;;;;;;;13.67;100.00;100752.02;105509;1261;60415;-65
2023/09/06 00:38:39;;;;;;;7.80;5.60;;;;;;;13.62;100.00;100753.44;105476;1256;74127;-60
2023/09/06 00:41:06;;;;;;;13.00;5.70;;;;;;;13.60;100.00;100752.30;105341;1260;66078;-60
2023/09/06 00:43:34;;;;;;;6.30;4.50;;;;;;;13.57;100.00;100750.74;105252;1256;73124;-60
2023/09/06 00:46:06;;;;;;;7.80;4.60;;;;;;;13.53;100.00;100748.14;105692;1258;61710;-60
2023/09/06 00:48:34;;;;;;;6.80;4.80;;;;;;;13.49;100.00;100749.71;105354;1256;61117;-60
2023/09/06 00:51:01;;;;;;;11.30;5.00;;;;;;;13.47;100.00;100752.48;105454;1257;72612;-64
2023/09/06 00:53:29;;;;;;;9.10;4.90;;;;;;;13.47;100.00;100749.58;105632;1259;67916;-61
2023/09/06 00:55:58;;;;;;;7.70;4.60;;;;;;;13.49;100.00;100754.02;105219;1256;72769;-61
2023/09/06 00:58:26;;;;;;;9.50;5.10;;;;;;;13.51;100.00;100751.41;105338;1267;60946;-63
2023/09/06 01:00:54;;;;;;;7.20;4.40;;;;;;;13.53;100.00;100747.37;105567;1262;60346;-62
2023/09/06 01:03:21;;;;;;;7.00;4.90;;;;;;;13.55;100.00;100744.67;105586;1260;73786;-61
2023/09/06 01:05:51;;;;;;;6.30;4.20;;;;;;;13.57;100.00;100745.02;105480;1256;67154;-61
2023/09/06 01:08:24;;;;;;;7.80;5.10;;;;;;;13.59;100.00;100747.66;105601;1256;72700;-60
2023/09/06 01:10:52;;;;;;;6.30;4.30;;;;;;;13.63;100.00;100749.30;105468;1256;62696;-62
2023/09/06 01:13:20;;;;;;;6.30;4.00;;;;;;;13.64;100.00;100753.17;105581;1260;60458;-60
2023/09/06 01:15:48;;;;;;;7.10;4.80;;;;;;;13.65;100.00;100751.33;105795;1256;72449;-61
2023/09/06 01:18:15;;;;;;;6.80;4.20;;;;;;;13.65;100.00;100752.58;105470;1260;67214;-60
2023/09/06 01:20:52;;;;;;;7.00;4.80;;;;;;;13.64;100.00;100751.29;105546;1256;72694;-62
2023/09/06 01:23:38;;;;;;;5.90;4.60;;;;;;;13.64;100.00;100747.83;105420;1261;61984;-62
2023/09/06 01:26:05;;;;;;;9.00;4.90;;;;;;;13.64;100.00;100749.54;106010;1256;60513;-64
2023/09/06 01:28:32;;;;;;;10.00;5.20;;;;;;;13.65;100.00;100754.27;105722;1261;73599;-61
2023/09/06 01:31:00;;;;;;;7.30;5.10;;;;;;;13.61;100.00;100755.20;105236;1256;67337;-61
2023/09/06 01:33:28;;;;;;;14.80;6.70;;;;;;;13.58;100.00;100755.23;105405;1258;72351;-61
2023/09/06 01:35:55;;;;;;;9.80;5.50;;;;;;;13.56;100.00;100758.19;105512;1261;60509;-62
2023/09/06 01:38:23;;;;;;;8.10;5.70;;;;;;;13.53;100.00;100757.92;105510;1262;60219;-63
2023/09/06 01:40:51;;;;;;;14.30;6.30;;;;;;;13.49;100.00;100756.97;105326;1260;74117;-62
2023/09/06 01:43:18;;;;;;;9.60;5.70;;;;;;;13.46;100.00;100754.77;105436;1260;65897;-61
2023/09/06 01:45:48;;;;;;;9.00;5.10;;;;;;;13.42;100.00;100757.35;105656;1260;71527;-60
2023/09/06 01:48:15;;;;;;;9.10;5.00;;;;;;;13.37;100.00;100759.86;105624;1261;60766;-62
2023/09/06 01:50:42;;;;;;;8.20;5.30;;;;;;;13.34;100.00;100761.28;105445;1257;59661;-63
2023/09/06 01:53:09;;;;;;;8.70;5.20;;;;;;;13.33;100.00;100761.56;105286;1270;73857;-62
2023/09/06 01:55:36;;;;;;;11.30;6.40;;;;;;;13.29;100.00;100761.95;105276;1260;67500;-61
2023/09/06 01:58:04;;;;;;;9.00;5.50;;;;;;;13.25;100.00;100764.14;105423;1256;72605;-64
2023/09/06 02:00:34;;;;;;;9.30;5.40;;;;;;;13.23;100.00;100763.88;105255;1256;62599;-62
2023/09/06 02:03:01;;;;;;;8.30;5.30;;;;;;;13.20;100.00;100766.83;105321;1261;60488;-60
2023/09/06 02:05:31;;;;;;;11.40;5.30;;;;;;;13.17;100.00;100765.52;105542;1261;73603;-61
2023/09/06 02:07:58;;;;;;;9.90;5.20;;;;;;;13.13;100.00;100766.62;105522;1258;64982;-60
2023/09/06 02:10:25;;;;;;;7.00;5.20;;;;;;;13.10;100.00;100768.84;105481;1257;71423;-61
2023/09/06 02:12:53;;;;;;;9.50;5.80;;;;;;;13.08;100.00;100772.33;105491;1256;61288;-62
2023/09/06 02:15:20;;;;;;;8.20;5.20;;;;;;;13.09;100.00;100771.26;105375;1262;59185;-61
2023/09/06 02:17:47;;;;;;;10.20;5.00;;;;;;;13.05;100.00;100768.14;105398;1261;72671;-62
2023/09/06 02:20:24;;;;;;;12.20;5.30;;;;;;;12.99;100.00;100770.50;105816;1256;66153;-62
2023/09/06 02:22:55;;;;;;;9.30;5.20;;;;;;;12.92;100.00;100773.50;105843;1260;72816;-63
2023/09/06 02:25:30;;;;;;;8.30;5.30;;;;;;;12.88;100.00;100772.38;105489;1261;60459;-62
2023/09/06 02:28:04;;;;;;;8.10;5.10;;;;;;;12.86;100.00;100777.05;105331;1261;59116;-62
2023/09/06 02:30:32;;;;;;;8.20;5.00;;;;;;;12.84;100.00;100779.02;105533;1261;74018;-65
2023/09/06 02:33:00;;;;;;;6.40;4.60;;;;;;;12.82;100.00;100778.59;105399;1259;66022;-61
2023/09/06 02:35:27;;;;;;;8.00;5.00;;;;;;;12.79;100.00;100776.20;105352;1258;70201;-65
2023/09/06 02:37:54;;;;;;;7.80;4.70;;;;;;;12.77;100.00;100776.08;105335;1261;60740;-61
2023/09/06 02:40:21;;;;;;;5.80;4.30;;;;;;;12.76;100.00;100778.83;105125;1261;60488;-63
2023/09/06 02:42:51;;;;;;;7.80;5.40;;;;;;;12.74;100.00;100781.48;105286;1256;73380;-63
2023/09/06 02:45:18;;;;;;;7.50;4.90;;;;;;;12.70;100.00;100788.59;105243;1260;66727;-61
2023/09/06 02:47:49;;;;;;;6.60;4.60;;;;;;;12.64;100.00;100785.75;105292;1260;71597;-61
2023/09/06 02:50:17;;;;;;;;;;;;;;;12.58;100.00;100785.95;105339;1256;62258;-62
2023/09/06 02:52:45;;;;;;;10.80;4.90;;;;;;;12.55;100.00;100791.10;105613;1256;60362;-61
2023/09/06 02:55:13;;;;;;;9.30;4.40;;;;;;;12.52;100.00;100789.14;105375;1261;73880;-63
2023/09/06 02:57:43;;;;;;;8.20;5.50;;;;;;;12.51;100.00;100789.14;105442;1260;67201;-62
2023/09/06 03:00:26;;;;;;;12.70;5.70;;;;;;;12.51;100.00;100792.02;105592;1256;72720;-62
2023/09/06 03:03:07;;;;;;;7.60;4.90;;;;;;;12.57;100.00;100793.11;105330;1261;60840;-62
2023/09/06 03:05:41;;;;;;;10.60;5.20;;;;;;;12.60;100.00;100794.50;105191;1259;60480;-64
2023/09/06 03:08:09;;;;;;;139.90;88.50;;;;;;;12.59;100.00;100795.10;105735;1256;72040;-63
2023/09/06 03:10:36;;;;;;;89.70;55.50;;;;;;;12.60;100.00;100797.08;105276;1260;67238;-61
2023/09/06 03:13:05;;;;;;;79.40;52.40;;;;;;;12.62;100.00;100797.55;105274;1264;72701;-61
2023/09/06 03:15:34;;;;;;;38.60;24.30;;;;;;;12.66;100.00;100797.75;105363;1261;63248;-61
2023/09/06 03:18:02;;;;;;;14.90;10.50;;;;;;;12.73;100.00;100797.80;105392;1256;61068;-62
2023/09/06 03:20:42;;;;;;;19.00;11.40;;;;;;;12.81;100.00;100797.41;105370;1262;74290;-62
2023/09/06 03:23:17;;;;;;;11.70;6.60;;;;;;;12.92;100.00;100801.08;105585;1261;65923;-63
2023/09/06 03:25:57;;;;;;;10.60;7.50;;;;;;;13.09;100.00;100799.97;105601;1260;72393;-61
2023/09/06 03:28:29;;;;;;;17.80;12.30;;;;;;;13.43;100.00;100803.33;105290;1271;60592;-63
2023/09/06 03:31:00;;;;;;;40.00;29.90;;;;;;;13.96;100.00;100805.47;105599;1256;60469;-63
2023/09/06 03:33:29;;;;;;;25.70;17.10;;;;;;;14.66;100.00;100809.26;105660;1258;73834;-62
2023/09/06 03:35:56;;;;;;;16.60;9.90;;;;;;;15.43;100.00;100815.86;105382;1261;66636;-62
2023/09/06 03:38:25;;;;;;;15.30;11.30;;;;;;;16.27;100.00;100815.91;105280;1262;72759;-62
2023/09/06 03:40:53;;;;;;;19.40;13.70;;;;;;;17.14;100.00;100821.70;105328;1257;60429;-63
2023/09/06 03:43:29;;;;;;;31.30;23.00;;;;;;;17.93;100.00;100817.97;105167;1262;60372;-61
2023/09/06 03:45:58;;;;;;;29.70;22.00;;;;;;;18.71;100.00;100809.61;105364;1260;74211;-62
2023/09/06 03:48:27;;;;;;;46.10;31.90;;;;;;;19.45;100.00;100801.23;105345;1260;67096;-65
2023/09/06 03:50:56;;;;;;;31.10;22.30;;;;;;;20.21;100.00;100793.16;105868;1260;71304;-63
2023/09/06 03:53:25;;;;;;;23.10;18.00;;;;;;;20.91;100.00;100777.90;105840;1260;60425;-62
2023/09/06 03:55:57;;;;;;;16.40;11.60;;;;;;;21.62;100.00;100751.77;105422;1257;60756;-62
2023/09/06 03:58:29;;;;;;;10.60;7.20;;;;;;;22.26;100.00;100718.19;105132;1261;73800;-63
2023/09/06 04:00:57;;;;;;;9.00;5.40;;;;;;;22.83;100.00;100692.88;105666;1259;66220;-62
2023/09/06 04:03:30;;;;;;;10.50;7.60;;;;;;;23.37;100.00;100667.26;105523;1260;72651;-63
2023/09/06 04:06:02;;;;;;;10.70;6.90;;;;;;;23.98;100.00;100650.77;105375;1256;59685;-62
2023/09/06 04:08:31;;;;;;;8.60;5.70;;;;;;;24.68;100.00;100643.20;105607;1260;60866;-63
2023/09/06 04:10:59;;;;;;;6.40;5.20;;;;;;;25.12;100.00;100633.88;105180;1269;74436;-61
2023/09/06 04:13:26;;;;;;;7.20;5.80;;;;;;;25.33;100.00;100637.25;105666;1258;67175;-62
2023/09/06 04:15:53;;;;;;;10.00;7.70;;;;;;;25.62;100.00;100637.46;105360;1260;73683;-62
2023/09/06 04:18:20;;;;;;;8.60;6.90;;;;;;;25.96;100.00;100642.44;105329;1257;60492;-62
2023/09/06 04:20:49;;;;;;;8.00;6.00;;;;;;;26.37;100.00;100645.45;105284;1257;60494;-62
2023/09/06 04:23:18;;;;;;;6.00;5.40;;;;;;;26.83;100.00;100646.32;105283;1257;74193;-62
2023/09/06 04:25:49;;;;;;;9.80;4.80;;;;;;;27.26;100.00;100646.06;105318;1261;65959;-62
2023/09/06 04:28:20;;;;;;;8.50;5.40;;;;;;;27.61;100.00;100651.01;105681;1260;71383;-65
2023/09/06 04:30:49;;;;;;;7.10;5.40;;;;;;;27.87;100.00;100653.85;105635;1257;61214;-62
2023/09/06 04:33:18;;;;;;;5.80;4.80;;;;;;;28.24;100.00;100655.52;105247;1257;60347;-62
2023/09/06 04:35:50;;;;;;;8.40;5.90;;;;;;;28.62;100.00;100655.44;105487;1257;74596;-63
2023/09/06 04:38:20;;;;;;;8.50;6.20;;;;;;;29.05;100.00;100659.89;105510;1257;66871;-64
2023/09/06 04:40:48;;;;;;;8.40;5.00;;;;;;;29.44;96.60;100657.27;105675;1262;72214;-62
2023/09/06 04:43:17;;;;;;;6.70;3.50;;;;;;;29.83;92.19;100660.15;105444;1256;60529;-63
2023/09/06 04:45:46;;;;;;;6.60;3.90;;;;;;;30.25;86.78;100659.75;105425;1260;60812;-64
2023/09/06 04:48:16;;;;;;;5.00;3.80;;;;;;;30.59;79.84;100661.59;105471;1257;73215;-63
2023/09/06 04:50:45;;;;;;;9.60;5.20;;;;;;;30.90;74.38;100662.48;105331;1260;65429;-62
2023/09/06 04:53:17;;;;;;;5.50;4.20;;;;;;;30.99;69.11;100661.21;105327;1260;72686;-63
2023/09/06 04:55:47;;;;;;;9.20;7.00;;;;;;;31.05;65.97;100663.68;105585;1258;61262;-63
2023/09/06 04:58:15;;;;;;;9.10;5.90;;;;;;;31.05;64.07;100664.54;105314;1260;60740;-63
2023/09/06 05:00:43;;;;;;;6.70;5.60;;;;;;;30.99;62.30;100663.63;105715;1257;74067;-62
2023/09/06 05:03:11;;;;;;;7.40;5.20;;;;;;;30.81;62.96;100664.84;105424;1260;66070;-63
2023/09/06 05:05:40;;;;;;;9.90;5.80;;;;;;;30.64;62.96;100660.21;105450;1260;71135;-65
2023/09/06 05:08:08;;;;;;;10.70;6.40;;;;;;;30.59;66.29;100661.52;105464;1258;60053;-64
2023/09/06 05:10:36;;;;;;;9.10;6.40;;;;;;;30.79;65.73;100661.67;105662;1260;60530;-61
2023/09/06 05:13:07;;;;;;;7.40;6.10;;;;;;;30.97;62.86;100661.05;105632;1257;72670;-62
2023/09/06 05:15:38;;;;;;;9.50;5.60;;;;;;;31.02;61.43;100660.36;105501;1258;67122;-65
2023/09/06 05:18:07;;;;;;;8.90;6.10;;;;;;;31.09;60.57;100667.62;105095;1257;71340;-63
2023/09/06 05:20:37;;;;;;;8.40;5.90;;;;;;;31.23;59.69;100666.33;105620;1258;60458;-61
2023/09/06 05:23:12;;;;;;;8.90;6.60;;;;;;;31.33;60.15;100664.12;105689;1260;60373;-62
2023/09/06 05:25:40;;;;;;;12.10;7.10;;;;;;;31.47;58.43;100664.98;105618;1260;74239;-64
2023/09/06 05:28:10;;;;;;;9.80;7.00;;;;;;;31.27;57.11;100665.73;105452;1260;66513;-63
2023/09/06 05:30:40;;;;;;;11.50;7.70;;;;;;;30.88;60.15;100667.94;105384;1257;72600;-61
2023/09/06 05:33:09;;;;;;;13.40;8.80;;;;;;;30.32;63.32;100670.29;106087;1257;60931;-62
2023/09/06 05:35:37;;;;;;;12.90;10.60;;;;;;;29.71;71.32;100676.09;105740;1257;60530;-64
2023/09/06 05:38:05;;;;;;;11.40;10.00;;;;;;;29.22;79.09;100679.66;105122;1260;73651;-62
2023/09/06 05:40:33;;;;;;;12.10;10.60;;;;;;;28.84;85.05;100681.98;105273;1256;65894;-61
2023/09/06 05:43:00;;;;;;;10.30;8.90;;;;;;;28.47;89.09;100681.52;105905;1258;72655;-61
2023/09/06 05:45:29;;;;;;;13.10;10.40;;;;;;;27.97;95.10;100678.38;105512;1257;60396;-64
2023/09/06 05:47:57;;;;;;;12.30;9.80;;;;;;;27.54;99.86;100676.04;105038;1261;60479;-62
2023/09/06 05:50:26;;;;;;;12.40;9.30;;;;;;;27.29;100.00;100683.17;105526;1257;73745;-61
2023/09/06 05:52:54;;;;;;;13.00;11.30;;;;;;;27.12;100.00;100682.13;105441;1260;66171;-61
2023/09/06 05:55:21;;;;;;;12.70;9.60;;;;;;;27.15;100.00;100684.66;105494;1257;72625;-62
2023/09/06 05:57:49;;;;;;;12.40;9.90;;;;;;;27.42;100.00;100683.25;105407;1261;60339;-63
2023/09/06 06:00:17;;;;;;;12.30;10.40;;;;;;;27.53;100.00;100682.33;105452;1260;60601;-62
2023/09/06 06:02:49;;;;;;;12.00;9.40;;;;;;;27.44;100.00;100685.30;105658;1260;72819;-64
2023/09/06 06:05:18;;;;;;;10.80;9.30;;;;;;;27.47;100.00;100682.56;105501;1257;67048;-62
2023/09/06 06:07:46;;;;;;;13.10;8.80;;;;;;;27.61;100.00;100680.13;105924;1257;71301;-64
2023/09/06 06:10:13;;;;;;;11.50;9.80;;;;;;;27.77;100.00;100684.10;105448;1257;60592;-61
2023/09/06 06:12:41;;;;;;;11.10;8.90;;;;;;;27.80;100.00;100682.55;105786;1257;311248;-61
2023/09/06 06:15:09;;;;;;;9.70;8.20;;;;;;;27.77;100.00;100680.50;105932;1257;74064;-63
2023/09/06 06:17:36;;;;;;;12.40;9.80;;;;;;;27.91;100.00;100684.89;105415;1257;67665;-66
2023/09/06 06:20:09;;;;;;;10.80;9.60;;;;;;;28.02;100.00;100684.58;105388;1260;71621;-63
2023/09/06 06:22:40;;;;;;;11.50;7.90;;;;;;;28.19;100.00;100679.67;105527;1256;61109;-62
2023/09/06 06:25:08;;;;;;;10.90;7.90;;;;;;;28.51;100.00;100679.15;105790;1257;60432;-62
2023/09/06 06:27:36;;;;;;;9.10;8.00;;;;;;;29.02;100.00;100678.77;105965;1258;73404;-65
2023/09/06 06:30:05;;;;;;;10.80;7.20;;;;;;;29.62;100.00;100676.81;105328;1260;67137;-63
2023/09/06 06:32:33;;;;;;;9.10;7.80;;;;;;;30.36;95.88;100673.95;105562;1259;72432;-62
2023/09/06 06:35:05;;;;;;;8.80;7.60;;;;;;;31.07;84.91;100674.52;105596;1260;60470;-60
2023/09/06 06:37:32;;;;;;;10.50;7.80;;;;;;;31.56;75.54;100667.45;105626;1260;59342;-62
2023/09/06 06:39:59;;;;;;;13.20;8.60;;;;;;;31.81;71.44;100666.64;105401;1257;63924;-61
2023/09/06 06:42:27;;;;;;;12.60;8.40;;;;;;;32.02;69.72;100665.69;105239;1256;65760;-62
2023/09/06 06:44:56;;;;;;;10.50;7.40;;;;;;;32.36;67.38;100662.98;105362;1258;63162;-61
2023/09/06 06:47:23;;;;;;;9.40;7.40;;;;;;;32.77;64.40;100664.40;105839;1257;60496;-62
2023/09/06 06:49:51;;;;;;;13.40;7.80;;;;;;;33.18;60.58;100661.59;105856;1257;60301;-63
2023/09/06 06:52:18;;;;;;;11.60;8.20;;;;;;;33.31;58.17;100657.20;105179;1260;73206;-61
2023/09/06 06:54:48;;;;;;;11.00;8.20;;;;;;;33.37;55.64;100654.85;105613;1258;60435;-61
2023/09/06 06:57:15;;;;;;;13.50;8.10;;;;;;;33.30;57.03;100652.60;105593;1260;72788;-61
2023/09/06 06:59:42;;;;;;;9.20;7.90;;;;;;;33.44;54.76;100650.88;105648;1256;60404;-63
2023/09/06 07:02:09;;;;;;;12.70;7.90;;;;;;;33.61;54.35;100648.62;105260;1261;60447;-61
2023/09/06 07:04:37;;;;;;;12.30;7.80;;;;;;;33.80;54.44;100649.80;105718;1256;65030;-61
2023/09/06 07:07:04;;;;;;;12.70;7.50;;;;;;;33.83;52.45;100646.36;105221;1260;60542;-61
2023/09/06 07:09:31;;;;;;;10.60;8.80;;;;;;;33.74;52.31;100646.19;105837;1257;64262;-63
2023/09/06 07:11:58;;;;;;;11.70;7.50;;;;;;;33.88;52.02;100646.84;105289;1260;60446;-61
2023/09/06 07:14:25;;;;;;;10.30;7.10;;;;;;;34.17;50.98;100640.17;105391;1256;60528;-61
2023/09/06 07:16:52;;;;;;;9.00;7.00;;;;;;;34.52;49.78;100635.76;105571;1257;64055;-62
2023/09/06 07:19:20;;;;;;;9.00;7.30;;;;;;;34.91;49.21;100633.02;106118;1257;60346;-61
2023/09/06 07:21:47;;;;;;;11.00;7.00;;;;;;;35.38;46.78;100631.05;105677;1257;64122;-63
2023/09/06 07:24:14;;;;;;;11.60;7.40;;;;;;;35.71;43.95;100626.28;105599;1260;60443;-62
2023/09/06 07:26:42;;;;;;;8.50;7.40;;;;;;;35.93;42.74;100626.73;105551;1260;60531;-61
2023/09/06 07:29:10;;;;;;;9.40;7.50;;;;;;;36.13;42.93;100627.38;105451;1257;65157;-61
2023/09/06 07:31:37;;;;;;;10.10;7.70;;;;;;;36.39;42.21;100622.41;105965;1258;59665;-63
2023/09/06 07:34:04;;;;;;;8.90;7.30;;;;;;;36.60;41.26;100617.00;105546;1257;64341;-62
2023/09/06 07:36:32;;;;;;;9.40;7.30;;;;;;;36.76;40.19;100618.87;105254;1261;60338;-61
2023/09/06 07:38:59;;;;;;;10.10;7.30;;;;;;;36.92;39.37;100619.40;105349;1257;60439;-62
2023/09/06 07:41:26;;;;;;;11.20;7.60;;;;;;;37.10;38.98;100619.98;105721;1257;65256;-61
2023/09/06 07:43:54;;;;;;;9.40;7.20;;;;;;;37.28;37.63;100615.48;105779;1256;60441;-64
2023/09/06 07:46:25;;;;;;;7.40;6.60;;;;;;;37.46;36.64;100615.58;105542;1260;63622;-62
2023/09/06 07:48:52;;;;;;;7.70;6.80;;;;;;;37.58;35.72;100613.66;105990;1257;60420;-61
2023/09/06 07:51:19;;;;;;;8.30;5.50;;;;;;;37.45;34.16;100612.45;105464;1257;59280;-62
2023/09/06 07:53:46;;;;;;;7.80;5.30;;;;;;;37.09;33.36;100610.02;105674;1259;64046;-63
2023/09/06 07:56:13;;;;;;;7.30;5.40;;;;;;;36.58;33.85;100609.00;105409;1260;60358;-62
2023/09/06 07:58:40;;;;;;;7.00;5.10;;;;;;;36.13;35.44;100608.31;105324;1257;64077;-61
2023/09/06 08:01:08;;;;;;;9.30;5.80;;;;;;;36.09;35.63;100605.09;105669;1256;60923;-61
2023/09/06 08:03:46;;;;;;;7.70;5.20;;;;;;;36.29;35.38;100605.30;105550;1257;59776;-63
2023/09/06 08:06:14;;;;;;;7.50;5.20;;;;;;;36.34;35.03;100605.77;105367;1257;74676;-61
2023/09/06 08:08:41;;;;;;;7.00;5.10;;;;;;;36.15;35.00;100603.02;105508;1260;60428;-61
2023/09/06 08:11:08;;;;;;;5.80;4.90;;;;;;;35.76;36.19;100604.48;105295;1260;63953;-61
2023/09/06 08:13:37;;;;;;;7.90;5.50;;;;;;;35.48;36.34;100604.91;106203;1256;60557;-63
2023/09/06 08:16:05;;;;;;;6.80;5.20;;;;;;;35.13;38.06;100605.64;105546;1260;60455;-62
2023/09/06 08:18:32;;;;;;;7.90;4.80;;;;;;;34.92;39.34;100605.89;105481;1257;63807;-61
2023/09/06 08:21:00;;;;;;;7.30;4.60;;;;;;;34.71;38.66;100607.78;105387;1256;60483;-61
2023/09/06 08:23:28;;;;;;;5.50;4.10;;;;;;;34.36;38.28;100602.52;105662;1256;64088;-63
2023/09/06 08:25:56;;;;;;;7.80;4.10;;;;;;;34.32;39.12;100599.98;105670;1257;60483;-64
2023/09/06 08:28:23;;;;;;;6.30;4.20;;;;;;;34.59;38.56;100597.49;105197;1260;60390;-61
2023/09/06 08:30:50;;;;;;;7.80;4.70;;;;;;;34.77;37.19;100599.36;105584;1257;65107;-62
2023/09/06 08:33:17;;;;;;;6.20;4.20;;;;;;;34.42;37.41;100599.67;105380;1257;60564;-61
2023/09/06 08:35:44;;;;;;;5.40;4.20;;;;;;;33.96;38.39;100602.32;105406;1256;65875;-64
2023/09/06 08:38:12;;;;;;;7.30;5.10;;;;;;;33.72;40.97;100600.75;105928;1256;60441;-61
2023/09/06 08:40:52;;;;;;;6.00;4.30;;;;;;;33.87;44.74;100597.27;105397;1256;60736;-61
2023/09/06 08:43:19;;;;;;;4.70;4.20;;;;;;;34.23;41.54;100583.95;105411;1256;74440;-62
2023/09/06 08:45:48;;;;;;;5.90;4.00;;;;;;;34.47;40.49;100588.05;105774;1259;60312;-65
2023/09/06 08:48:15;;;;;;;6.20;4.70;;;;;;;34.61;38.14;100589.20;105639;1260;64908;-63
2023/09/06 08:50:43;;;;;;;5.70;4.70;;;;;;;34.43;38.15;100589.65;105377;1260;60671;-62
2023/09/06 08:53:10;;;;;;;4.70;4.00;;;;;;;34.07;39.04;100592.20;105681;1256;60423;-62
2023/09/06 08:55:37;;;;;;;7.80;4.40;;;;;;;33.73;39.63;100591.45;105611;1257;65627;-65
2023/09/06 08:58:04;;;;;;;5.20;4.10;;;;;;;33.75;41.83;100591.42;105334;1256;60473;-60
2023/09/06 09:00:31;;;;;;;5.90;4.70;;;;;;;34.22;43.02;100588.33;105296;1259;63870;-60
2023/09/06 09:02:58;;;;;;;6.30;4.40;;;;;;;34.71;42.01;100589.73;105428;1260;60530;-60
2023/09/06 09:05:26;;;;;;;8.50;4.10;;;;;;;35.11;38.05;100586.30;105709;1256;58870;-62
2023/09/06 09:07:58;;;;;;;7.00;4.10;;;;;;;35.48;36.14;100580.45;105478;1260;66282;-62
2023/09/06 09:10:28;;;;;;;6.50;3.90;;;;;;;35.54;35.73;100582.64;105441;1256;60531;-61
2023/09/06 09:12:57;;;;;;;8.40;4.00;;;;;;;35.32;35.86;100584.23;105769;1256;65657;-60
2023/09/06 09:15:27;;;;;;;4.70;3.40;;;;;;;35.22;34.95;100582.90;105380;1256;60439;-63
2023/09/06 09:17:54;;;;;;;7.20;3.70;;;;;;;35.15;33.72;100583.95;105502;1262;60461;-62
2023/09/06 09:20:25;;;;;;;6.70;4.60;;;;;;;35.15;33.64;100582.45;105320;1260;66693;-61
2023/09/06 09:22:52;;;;;;;4.50;4.00;;;;;;;35.16;33.81;100581.33;105468;1259;59196;-60
2023/09/06 09:25:23;;;;;;;4.80;4.20;;;;;;;35.15;34.10;100577.05;105902;1257;64046;-62
2023/09/06 09:27:56;;;;;;;4.80;3.90;;;;;;;35.20;34.25;100578.66;105673;1260;60398;-61
2023/09/06 09:30:24;;;;;;;5.80;4.40;;;;;;;35.15;34.72;100577.36;105364;1256;60442;-60
2023/09/06 09:33:03;;;;;;;7.30;4.70;;;;;;;35.13;35.72;100576.05;105373;1256;64063;-61
2023/09/06 09:35:31;;;;;;;5.80;4.30;;;;;;;35.15;35.36;100576.36;105523;1256;60452;-63
2023/09/06 09:38:00;;;;;;;6.40;4.20;;;;;;;34.98;35.19;100572.80;105449;1256;64051;-60
2023/09/06 09:40:34;;;;;;;7.20;4.10;;;;;;;34.60;36.74;100575.86;105390;1260;60537;-60
2023/09/06 09:43:19;;;;;;;7.00;4.40;;;;;;;34.60;38.15;100573.14;105231;1256;60368;-60
2023/09/06 09:45:46;;;;;;;5.60;4.30;;;;;;;34.89;37.82;100566.35;105388;1260;66956;-62
2023/09/06 09:48:15;;;;;;;7.00;4.00;;;;;;;35.34;37.53;100566.94;105713;1256;60562;-61
2023/09/06 09:50:43;;;;;;;5.40;4.40;;;;;;;35.81;36.67;100566.35;105657;1258;65331;-62
2023/09/06 09:53:10;;;;;;;5.40;4.30;;;;;;;36.08;36.20;100569.04;105659;1260;60527;-62
2023/09/06 09:55:49;;;;;;;6.70;4.40;;;;;;;36.17;34.84;100566.70;105164;1256;60414;-61
2023/09/06 09:58:19;;;;;;;7.40;4.50;;;;;;;36.07;33.43;100569.92;105535;1256;65267;-58
2023/09/06 10:00:50;;;;;;;6.70;4.00;;;;;;;35.74;33.33;100567.23;105900;1256;60448;-63
2023/09/06 10:03:18;;;;;;;6.10;4.20;;;;;;;35.50;35.22;100566.30;105489;1256;64719;-61
2023/09/06 10:05:46;;;;;;;4.60;3.80;;;;;;;35.49;35.00;100565.45;105571;1256;59270;-62
2023/09/06 10:08:13;;;;;;;5.70;4.40;;;;;;;35.63;34.29;100564.31;105637;1259;60416;-60
2023/09/06 10:10:40;;;;;;;6.30;3.90;;;;;;;35.86;33.89;100569.42;105197;1260;65288;-62
2023/09/06 10:13:10;;;;;;;4.90;3.90;;;;;;;35.91;33.10;100567.77;105359;1256;67164;-62
2023/09/06 10:15:37;;;;;;;5.20;4.70;;;;;;;35.65;32.69;100567.60;105505;1258;64105;-61
2023/09/06 10:18:06;;;;;;;4.50;3.70;;;;;;;35.48;33.98;100567.65;105459;1257;60448;-61
2023/09/06 10:20:34;;;;;;;6.00;3.90;;;;;;;35.68;34.38;100562.96;105542;1260;60439;-61
2023/09/06 10:23:01;;;;;;;11.60;4.00;;;;;;;35.89;34.91;100566.95;105432;1258;66897;-62
2023/09/06 10:25:29;;;;;;;7.10;4.00;;;;;;;36.17;34.28;100562.27;105337;1256;59389;-62
2023/09/06 10:27:56;;;;;;;4.70;4.10;;;;;;;36.48;34.18;100560.59;105683;1256;62878;-62
2023/09/06 10:30:34;;;;;;;5.40;4.80;;;;;;;36.77;33.47;100560.52;105634;1256;60536;-62
2023/09/06 10:33:03;;;;;;;5.40;4.00;;;;;;;36.98;33.11;100557.38;105508;1256;60570;-61
2023/09/06 10:35:31;;;;;;;6.50;3.90;;;;;;;37.01;32.47;100556.77;105327;1257;66676;-61
2023/09/06 10:38:01;;;;;;;4.90;3.90;;;;;;;36.99;31.41;100557.39;105443;1257;60508;-61
2023/09/06 10:40:54;;;;;;;10.20;4.20;;;;;;;36.97;31.60;100556.63;105676;1260;65583;-64
2023/09/06 10:43:26;;;;;;;4.70;3.70;;;;;;;37.07;31.27;100553.27;105797;1259;60442;-61
2023/09/06 10:45:54;;;;;;;7.10;3.70;;;;;;;37.20;30.92;100545.66;105609;1256;60432;-64
2023/09/06 10:48:24;;;;;;;6.30;4.00;;;;;;;37.30;31.19;100545.84;105317;1255;65704;-61
2023/09/06 10:51:06;;;;;;;5.80;4.20;;;;;;;37.34;30.29;100546.16;105867;1256;60497;-61
2023/09/06 10:53:34;;;;;;;6.10;4.10;;;;;;;37.03;30.68;100547.37;105599;1257;70566;-61
2023/09/06 10:56:02;;;;;;;9.90;3.80;;;;;;;36.74;30.57;100547.47;105425;1261;60303;-62
2023/09/06 10:58:30;;;;;;;4.50;3.60;;;;;;;36.49;30.13;100542.00;105586;1256;60445;-63
2023/09/06 11:01:16;;;;;;;3.60;3.10;;;;;;;36.34;30.20;100538.34;105836;1256;63815;-63
2023/09/06 11:03:52;;;;;;;5.20;3.40;;;;;;;36.41;29.60;100539.30;105722;1256;59869;-61
2023/09/06 11:06:20;;;;;;;5.90;3.50;;;;;;;36.50;29.73;100540.40;105414;1256;64695;-61
2023/09/06 11:08:47;;;;;;;6.10;3.40;;;;;;;36.64;29.70;100537.63;105533;1256;60376;-61
2023/09/06 11:11:14;;;;;;;4.80;3.30;;;;;;;36.76;29.63;100537.73;105678;1256;60412;-64
2023/09/06 11:13:44;;;;;;;5.90;3.50;;;;;;;36.53;29.79;100536.65;105897;1260;64668;-62
2023/09/06 11:16:13;;;;;;;4.10;3.10;;;;;;;36.16;30.40;100532.65;105563;1256;60520;-61
2023/09/06 11:18:47;;;;;;;4.70;3.50;;;;;;;35.91;30.85;100528.55;105248;1260;64546;-61